Time;durP1;ratioP1;P1;durP2;ratioP2;P2;SDS_P1;SDS_P2;PMS_P1;PMS_P2;Temp;Humidity;BMP_temperature;BMP_pressure;BME280_temperature;BME280_humidity;BME280_pressure;Samples;Min_cycle;Max_cycle;Signal;HPM_P1;HPM_P2
2022/01/21 00:02:20;;;;;;;;;;;5.50;99.90;;;;;;4976396;28;19910;-78
2022/01/21 00:04:45;;;;;;;;;;;5.50;99.90;;;;;;4976348;28;20428;-79
2022/01/21 00:07:11;;;;;;;;;;;5.60;99.90;;;;;;4976255;28;19941;-78
2022/01/21 00:09:37;;;;;;;;;;;5.70;99.90;;;;;;4976417;28;19914;-78
2022/01/21 00:12:02;;;;;;;;;;;5.60;99.90;;;;;;4976202;28;20049;-79
2022/01/21 00:14:28;;;;;;;;;;;5.60;99.90;;;;;;4958653;28;20351;-79
2022/01/21 00:16:54;;;;;;;;;;;5.50;99.90;;;;;;4976092;28;19914;-79
2022/01/21 00:19:21;;;;;;;;;;;5.40;99.90;;;;;;4976034;28;19910;-78
2022/01/21 00:30:14;;;;;;;;;;;5.40;99.90;;;;;;4975835;28;19964;-79
2022/01/21 00:32:41;;;;;;;;;;;5.50;99.90;;;;;;4975833;28;20001;-79
2022/01/21 00:35:07;;;;;;;;;;;5.70;99.90;;;;;;4975685;28;19937;-79
2022/01/21 00:37:32;;;;;;;;;;;5.70;99.90;;;;;;4975901;28;19910;-78
2022/01/21 00:40:00;;;;;;;;;;;5.80;99.90;;;;;;4974440;28;19997;-79
2022/01/21 00:44:59;;;;;;;;;;;5.70;99.90;;;;;;4975369;28;19922;-79
2022/01/21 00:47:25;;;;;;;;;;;5.70;99.90;;;;;;4974269;28;19945;-79
2022/01/21 00:49:50;;;;;;;;;;;5.80;99.90;;;;;;4975506;28;20446;-79
2022/01/21 00:52:16;;;;;;;;;;;5.70;99.90;;;;;;4974109;28;19910;-79
2022/01/21 00:54:42;;;;;;;;;;;5.80;99.90;;;;;;4975339;28;19922;-79
2022/01/21 00:57:07;;;;;;;;;;;5.80;99.90;;;;;;4975550;28;19917;-78
2022/01/21 00:59:33;;;;;;;;;;;5.90;99.90;;;;;;4975362;28;20346;-79
2022/01/21 01:01:59;;;;;;;;;;;5.70;99.90;;;;;;4975379;28;20355;-79
2022/01/21 01:04:25;;;;;;;;;;;5.70;99.90;;;;;;4975454;28;19914;-78
2022/01/21 01:06:50;;;;;;;;;;;5.70;99.90;;;;;;4975233;28;20382;-79
2022/01/21 01:09:16;;;;;;;;;;;5.70;99.90;;;;;;4975308;28;19957;-78
2022/01/21 01:20:01;;;;;;;;;;;5.60;99.90;;;;;;4975094;28;19957;-78
2022/01/21 01:27:49;;;;;;;;;;;5.40;99.90;;;;;;4975255;28;19942;-79
2022/01/21 01:30:17;;;;;;;;;;;5.30;99.90;;;;;;4975067;28;19910;-79
2022/01/21 01:32:43;;;;;;;;;;;5.40;99.90;;;;;;4974903;28;19910;-79
2022/01/21 01:35:10;;;;;;;;;;;5.40;99.90;;;;;;4974822;28;20012;-78
2022/01/21 01:38:01;;;;;;;;;;;5.50;99.90;;;;;;4975054;28;19910;-78
2022/01/21 01:40:40;;;;;;;;;;;5.50;99.90;;;;;;4974819;28;19921;-78
2022/01/21 01:51:19;;;;;;;;;;;5.20;99.90;;;;;;4981266;28;20045;-79
2022/01/21 01:53:48;;;;;;;;;;;5.30;99.90;;;;;;4979749;28;19981;-79
2022/01/21 01:56:15;;;;;;;;;;;5.30;99.90;;;;;;4995659;28;19926;-79
2022/01/21 01:58:41;;;;;;;;;;;5.30;99.90;;;;;;4981268;28;20393;-79
2022/01/21 02:01:07;;;;;;;;;;;5.10;99.90;;;;;;4981184;28;19914;-79
2022/01/21 02:03:34;;;;;;;;;;;5.00;99.90;;;;;;4981066;28;19965;-79
2022/01/21 02:05:59;;;;;;;;;;;5.10;99.90;;;;;;4981088;28;19910;-79
2022/01/21 02:08:27;;;;;;;;;;;5.20;99.90;;;;;;4981256;28;20281;-79
2022/01/21 02:10:53;;;;;;;;;;;5.20;99.90;;;;;;4981030;28;19948;-79
2022/01/21 02:13:25;;;;;;;;;;;5.20;99.90;;;;;;4980997;28;19945;-79
2022/01/21 02:15:59;;;;;;;;;;;5.20;99.90;;;;;;4981362;28;19918;-78
2022/01/21 02:24:03;;;;;;;;;;;5.20;99.90;;;;;;4981146;28;19961;-79
2022/01/21 02:26:29;;;;;;;;;;;5.40;99.90;;;;;;4980903;28;19914;-79
2022/01/21 02:28:56;;;;;;;;;;;5.30;99.90;;;;;;4981037;28;19918;-79
2022/01/21 02:31:22;;;;;;;;;;;5.30;99.90;;;;;;4980861;28;20326;-78
2022/01/21 02:33:47;;;;;;;;;;;5.30;99.90;;;;;;4981026;28;19914;-78
2022/01/21 02:36:13;;;;;;;;;;;5.40;99.90;;;;;;4980874;28;19914;-78
2022/01/21 02:38:39;;;;;;;;;;;5.50;99.90;;;;;;4995797;28;20378;-78
2022/01/21 02:41:04;;;;;;;;;;;5.50;99.90;;;;;;4980791;28;20052;-79
2022/01/21 02:43:30;;;;;;;;;;;5.50;99.90;;;;;;4980781;28;20401;-79
2022/01/21 02:45:55;;;;;;;;;;;5.50;99.90;;;;;;4980960;28;19914;-79
2022/01/21 02:48:22;;;;;;;;;;;5.70;99.90;;;;;;4963324;28;19910;-79
2022/01/21 02:50:48;;;;;;;;;;;5.60;99.90;;;;;;4980654;28;19910;-78
2022/01/21 02:53:38;;;;;;;;;;;5.50;99.90;;;;;;4980698;28;19942;-79
2022/01/21 02:56:04;;;;;;;;;;;5.50;99.90;;;;;;4957239;28;19923;-78
2022/01/21 02:58:29;;;;;;;;;;;5.50;99.90;;;;;;4958222;29;20025;-79
2022/01/21 03:00:55;;;;;;;;;;;5.50;99.90;;;;;;4958321;29;19911;-79
2022/01/21 03:03:20;;;;;;;;;;;5.40;99.90;;;;;;4972954;28;20259;-79
2022/01/21 03:05:46;;;;;;;;;;;5.40;99.90;;;;;;4958277;29;19997;-78
2022/01/21 03:08:12;;;;;;;;;;;5.50;99.90;;;;;;4958411;29;19911;-78
2022/01/21 03:10:37;;;;;;;;;;;5.50;99.90;;;;;;4958108;29;19950;-79
2022/01/21 03:13:03;;;;;;;;;;;5.50;99.90;;;;;;4958036;29;20283;-79
2022/01/21 03:15:28;;;;;;;;;;;5.40;99.90;;;;;;4958351;29;19921;-79
2022/01/21 03:17:54;;;;;;;;;;;5.30;99.90;;;;;;4958110;29;20018;-79
2022/01/21 03:20:19;;;;;;;;;;;5.10;99.90;;;;;;4958043;29;20363;-79
2022/01/21 03:22:45;;;;;;;;;;;5.00;99.90;;;;;;4957825;29;19914;-79
2022/01/21 03:25:11;;;;;;;;;;;4.90;99.90;;;;;;4957844;29;19910;-78
2022/01/21 03:27:36;;;;;;;;;;;4.90;99.90;;;;;;4957771;29;19918;-78
2022/01/21 03:30:03;;;;;;;;;;;5.00;99.90;;;;;;4972568;28;19910;-79
2022/01/21 03:32:29;;;;;;;;;;;4.90;99.90;;;;;;4940323;29;20434;-79
2022/01/21 03:34:54;;;;;;;;;;;4.90;99.90;;;;;;4957513;29;20010;-79
2022/01/21 03:37:20;;;;;;;;;;;5.00;99.90;;;;;;4957697;29;19910;-78
2022/01/21 03:39:45;;;;;;;;;;;5.00;99.90;;;;;;4972386;28;19910;-79
2022/01/21 03:42:11;;;;;;;;;;;5.10;99.90;;;;;;4957604;29;19911;-79
2022/01/21 03:44:37;;;;;;;;;;;5.10;99.90;;;;;;4957963;29;20580;-78
2022/01/21 03:47:03;;;;;;;;;;;5.10;99.90;;;;;;4957413;29;19918;-78
2022/01/21 03:49:36;;;;;;;;;;;4.90;99.90;;;;;;4972144;28;19961;-79
2022/01/21 03:52:02;;;;;;;;;;;4.90;99.90;;;;;;4957287;29;19911;-79
2022/01/21 03:54:27;;;;;;;;;;;5.00;99.90;;;;;;4961421;28;19925;-79
2022/01/21 03:56:53;;;;;;;;;;;5.00;99.90;;;;;;4976748;28;19917;-79
2022/01/21 03:59:18;;;;;;;;;;;4.90;99.90;;;;;;4976538;28;20391;-79
2022/01/21 04:01:44;;;;;;;;;;;4.90;99.90;;;;;;4976447;28;19910;-78
2022/01/21 04:04:10;;;;;;;;;;;4.80;99.90;;;;;;4976389;28;19957;-78
2022/01/21 04:06:35;;;;;;;;;;;4.80;99.90;;;;;;4976060;28;20052;-79
2022/01/21 04:09:01;;;;;;;;;;;4.80;99.90;;;;;;4976418;28;19917;-80
2022/01/21 04:11:26;;;;;;;;;;;4.70;99.90;;;;;;4976242;28;19910;-78
2022/01/21 04:13:54;;;;;;;;;;;4.70;99.90;;;;;;4976242;28;19918;-78
2022/01/21 04:16:20;;;;;;;;;;;4.80;99.90;;;;;;4958743;28;19921;-78
2022/01/21 04:18:46;;;;;;;;;;;4.90;99.90;;;;;;4976254;28;19911;-78
2022/01/21 04:21:11;;;;;;;;;;;5.00;99.90;;;;;;4958765;28;19910;-79
2022/01/21 04:23:37;;;;;;;;;;;5.10;99.90;;;;;;4976022;28;19921;-79
2022/01/21 04:26:02;;;;;;;;;;;5.00;99.90;;;;;;4976142;28;20389;-79
2022/01/21 04:28:29;;;;;;;;;;;5.10;99.90;;;;;;4976044;28;20313;-79
2022/01/21 04:30:55;;;;;;;;;;;5.20;99.90;;;;;;4958555;28;19910;-79
2022/01/21 04:33:21;;;;;;;;;;;5.30;99.90;;;;;;4975851;28;19917;-79
2022/01/21 04:35:46;;;;;;;;;;;5.10;99.90;;;;;;4975736;28;19914;-79
2022/01/21 04:38:15;;;;;;;;;;;5.20;99.90;;;;;;4975774;28;20259;-79
2022/01/21 04:41:16;;;;;;;;;;;5.30;99.90;;;;;;4975738;28;19917;-79
2022/01/21 04:48:55;;;;;;;;;;;5.00;99.90;;;;;;4975625;28;20049;-78
2022/01/21 04:51:26;;;;;;;;;;;5.00;99.90;;;;;;4975905;28;19949;-78
2022/01/21 04:53:52;;;;;;;;;;;5.00;99.90;;;;;;4974146;28;19914;-78
2022/01/21 04:56:18;;;;;;;;;;;5.10;99.90;;;;;;4975217;28;19973;-79
2022/01/21 04:58:44;;;;;;;;;;;5.30;99.90;;;;;;4975405;28;19968;-78
2022/01/21 05:01:10;;;;;;;;;;;5.20;99.90;;;;;;4975328;28;20382;-78
2022/01/21 05:03:37;;;;;;;;;;;5.00;99.90;;;;;;4974012;28;19988;-78
2022/01/21 05:06:03;;;;;;;;;;;5.00;99.90;;;;;;4974018;28;20423;-78
2022/01/21 05:11:07;;;;;;;;;;;5.10;99.90;;;;;;4975006;28;19910;-78
2022/01/21 05:13:40;;;;;;;;;;;5.10;99.90;;;;;;4975188;28;20001;-79
2022/01/21 05:16:11;;;;;;;;;;;4.80;99.90;;;;;;4973556;28;19920;-78
2022/01/21 05:18:36;;;;;;;;;;;4.80;99.90;;;;;;4974427;28;20041;-79
2022/01/21 05:21:02;;;;;;;;;;;4.70;99.90;;;;;;4975159;28;19969;-79
2022/01/21 05:23:27;;;;;;;;;;;4.50;99.90;;;;;;4957649;28;19921;-79
2022/01/21 05:25:53;;;;;;;;;;;4.60;99.90;;;;;;4974981;28;20010;-78
2022/01/21 05:28:19;;;;;;;;;;;4.60;99.90;;;;;;4974980;28;19953;-78
2022/01/21 05:30:45;;;;;;;;;;;4.40;99.90;;;;;;4975000;28;19960;-79
2022/01/21 05:33:10;;;;;;;;;;;4.20;99.90;;;;;;4974896;28;20374;-80
2022/01/21 05:35:36;;;;;;;;;;;4.50;99.90;;;;;;4974818;28;20382;-79
2022/01/21 05:38:01;;;;;;;;;;;4.50;99.90;;;;;;4974912;28;19956;-79
2022/01/21 05:40:27;;;;;;;;;;;4.50;99.90;;;;;;4974863;28;20294;-78
2022/01/21 05:42:53;;;;;;;;;;;4.40;99.90;;;;;;4974986;28;19932;-79
2022/01/21 05:48:03;;;;;;;;;;;4.50;99.90;;;;;;4974987;28;19917;-79
2022/01/21 05:50:28;;;;;;;;;;;4.50;99.90;;;;;;4974746;28;19910;-78
2022/01/21 05:52:56;;;;;;;;;;;4.30;99.90;;;;;;4974824;28;20053;-79
2022/01/21 05:55:21;;;;;;;;;;;4.20;99.90;;;;;;4974461;28;19938;-79
2022/01/21 05:57:47;;;;;;;;;;;4.00;99.90;;;;;;4957340;28;19918;-79
2022/01/21 06:00:13;;;;;;;;;;;4.00;99.90;;;;;;4974818;28;20292;-80
2022/01/21 06:02:39;;;;;;;;;;;4.10;99.90;;;;;;4957251;28;20005;-79
2022/01/21 06:05:05;;;;;;;;;;;4.00;99.90;;;;;;4974800;28;19910;-79
2022/01/21 06:07:30;;;;;;;;;;;4.00;99.90;;;;;;4974605;28;19910;-79
2022/01/21 06:09:56;;;;;;;;;;;4.00;99.90;;;;;;4974587;28;19910;-78
2022/01/21 06:12:22;;;;;;;;;;;4.20;99.90;;;;;;4957290;28;19910;-79
2022/01/21 06:14:48;;;;;;;;;;;4.00;99.90;;;;;;4974777;28;19937;-79
2022/01/21 06:17:13;;;;;;;;;;;3.90;99.90;;;;;;4974535;28;19917;-78
2022/01/21 06:19:39;;;;;;;;;;;3.80;99.90;;;;;;4974556;28;19918;-79
2022/01/21 06:22:05;;;;;;;;;;;3.80;99.90;;;;;;4974523;28;19917;-79
2022/01/21 06:24:31;;;;;;;;;;;4.00;99.90;;;;;;4974435;28;19993;-79
2022/01/21 06:27:01;;;;;;;;;;;3.90;99.90;;;;;;4989306;28;19949;-79
2022/01/21 06:29:26;;;;;;;;;;;3.90;99.90;;;;;;4957593;28;19910;-79
2022/01/21 06:31:52;;;;;;;;;;;3.80;99.90;;;;;;4978099;28;20373;-79
2022/01/21 06:34:18;;;;;;;;;;;4.10;99.90;;;;;;4978031;28;19914;-78
2022/01/21 06:36:44;;;;;;;;;;;4.10;99.90;;;;;;4978155;28;20337;-78
2022/01/21 06:39:09;;;;;;;;;;;4.20;99.90;;;;;;4977964;28;19910;-79
2022/01/21 06:41:35;;;;;;;;;;;4.10;99.90;;;;;;4977935;28;19910;-79
2022/01/21 06:44:02;;;;;;;;;;;4.20;99.90;;;;;;4977823;28;20354;-79
2022/01/21 06:46:27;;;;;;;;;;;4.20;99.90;;;;;;4960326;28;19910;-79
2022/01/21 06:48:53;;;;;;;;;;;4.10;99.90;;;;;;4977817;28;19917;-79
2022/01/21 06:51:18;;;;;;;;;;;4.00;99.90;;;;;;4977735;28;20004;-79
2022/01/21 06:53:44;;;;;;;;;;;4.00;99.90;;;;;;4977604;28;19910;-79
2022/01/21 06:56:09;;;;;;;;;;;4.10;99.90;;;;;;4992059;28;20442;-79
2022/01/21 06:58:35;;;;;;;;;;;4.20;99.90;;;;;;4977687;28;19910;-79
2022/01/21 07:01:01;;;;;;;;;;;4.10;99.90;;;;;;4977500;28;19910;-78
2022/01/21 07:03:26;;;;;;;;;;;4.30;99.90;;;;;;4992439;28;20008;-79
2022/01/21 07:05:52;;;;;;;;;;;4.30;99.90;;;;;;4977438;28;19917;-79
2022/01/21 07:08:17;;;;;;;;;;;4.30;99.90;;;;;;4977731;28;19921;-78
2022/01/21 07:10:44;;;;;;;;;;;4.40;99.90;;;;;;4977639;28;19933;-78
2022/01/21 07:13:11;;;;;;;;;;;4.40;99.90;;;;;;4977319;28;20385;-79
2022/01/21 07:15:36;;;;;;;;;;;4.40;99.90;;;;;;4977203;28;19914;-78
2022/01/21 07:18:02;;;;;;;;;;;4.20;99.90;;;;;;4977422;28;19933;-79
2022/01/21 07:20:28;;;;;;;;;;;4.00;99.90;;;;;;4959843;28;20330;-78
2022/01/21 07:22:53;;;;;;;;;;;4.20;99.90;;;;;;4977192;28;19915;-79
2022/01/21 07:25:19;;;;;;;;;;;4.20;99.90;;;;;;4977169;28;19911;-78
2022/01/21 07:27:45;;;;;;;;;;;4.20;99.90;;;;;;4977090;28;19917;-79
2022/01/21 07:30:12;;;;;;;;;;;4.10;99.90;;;;;;4959577;28;19915;-79
2022/01/21 07:32:38;;;;;;;;;;;4.10;99.90;;;;;;4977306;28;19934;-79
2022/01/21 07:35:04;;;;;;;;;;;4.10;99.90;;;;;;4959456;28;20005;-79
2022/01/21 07:37:29;;;;;;;;;;;4.30;99.90;;;;;;4976908;28;19914;-79
2022/01/21 07:39:55;;;;;;;;;;;4.10;99.90;;;;;;4976904;28;20403;-79
2022/01/21 07:42:21;;;;;;;;;;;4.20;99.90;;;;;;4976086;28;19910;-78
2022/01/21 07:44:47;;;;;;;;;;;4.30;99.90;;;;;;4976914;28;19910;-79
2022/01/21 07:47:13;;;;;;;;;;;4.40;99.90;;;;;;4976773;28;19917;-79
2022/01/21 07:49:38;;;;;;;;;;;4.40;99.90;;;;;;4976992;28;19910;-79
2022/01/21 07:52:04;;;;;;;;;;;4.50;99.90;;;;;;4976551;28;19914;-79
2022/01/21 07:54:30;;;;;;;;;;;4.50;99.90;;;;;;4976365;28;19918;-79
2022/01/21 07:56:56;;;;;;;;;;;4.50;99.90;;;;;;4958888;28;19937;-79
2022/01/21 07:59:21;;;;;;;;;;;4.70;99.90;;;;;;4976713;28;19910;-79
2022/01/21 08:01:47;;;;;;;;;;;4.80;99.90;;;;;;4976458;28;20075;-79
2022/01/21 08:04:13;;;;;;;;;;;4.70;99.90;;;;;;4976537;28;19917;-79
2022/01/21 08:06:39;;;;;;;;;;;4.60;99.90;;;;;;4976412;28;19964;-79
2022/01/21 08:09:05;;;;;;;;;;;4.50;99.90;;;;;;4976094;28;19910;-80
2022/01/21 08:11:31;;;;;;;;;;;4.80;99.90;;;;;;4976154;28;19975;-79
2022/01/21 08:13:56;;;;;;;;;;;5.00;99.90;;;;;;4976742;28;19910;-79
2022/01/21 08:16:22;;;;;;;;;;;5.00;99.90;;;;;;4976182;28;19940;-78
2022/01/21 08:18:49;;;;;;;;;;;5.00;99.90;;;;;;4976172;28;19914;-78
2022/01/21 08:21:18;;;;;;;;;;;4.90;99.90;;;;;;4976024;28;19917;-79
2022/01/21 08:23:52;;;;;;;;;;;5.10;99.90;;;;;;4976051;28;19910;-79
2022/01/21 08:26:19;;;;;;;;;;;5.20;99.90;;;;;;4976009;28;19918;-79
2022/01/21 08:28:45;;;;;;;;;;;5.40;99.90;;;;;;4976002;28;19992;-79
2022/01/21 08:31:11;;;;;;;;;;;5.40;99.90;;;;;;4975966;28;19961;-79
2022/01/21 08:33:37;;;;;;;;;;;5.40;99.90;;;;;;4975878;28;19914;-78
2022/01/21 08:36:03;;;;;;;;;;;5.50;99.90;;;;;;4975819;28;20013;-79
2022/01/21 08:38:28;;;;;;;;;;;5.50;99.90;;;;;;4974535;28;20294;-79
2022/01/21 08:40:54;;;;;;;;;;;5.60;99.90;;;;;;4975779;28;20346;-79
2022/01/21 08:43:19;;;;;;;;;;;5.70;99.90;;;;;;4975666;28;19910;-78
2022/01/21 08:45:45;;;;;;;;;;;5.70;99.90;;;;;;4975641;28;19910;-79
2022/01/21 08:48:11;;;;;;;;;;;5.80;99.90;;;;;;4975598;28;20255;-79
2022/01/21 08:50:36;;;;;;;;;;;5.90;99.90;;;;;;4975578;28;19910;-78
2022/01/21 08:55:54;;;;;;;;;;;6.60;99.90;;;;;;4945056;28;20396;-78
2022/01/21 08:58:19;;;;;;;;;;;7.30;99.90;;;;;;4990317;28;20004;-79
2022/01/21 09:00:45;;;;;;;;;;;8.20;99.90;;;;;;4975369;28;19938;-79
2022/01/21 09:03:11;;;;;;;;;;;9.40;99.90;;;;;;4975564;28;19910;-79
2022/01/21 09:05:36;;;;;;;;;;;10.40;99.90;;;;;;4990278;28;20333;-79
2022/01/21 09:08:02;;;;;;;;;;;11.30;99.80;;;;;;4975781;28;20041;-79
2022/01/21 09:10:28;;;;;;;;;;;12.30;98.00;;;;;;4975190;28;20004;-80
2022/01/21 09:12:53;;;;;;;;;;;13.20;96.00;;;;;;4975219;28;19989;-79
2022/01/21 09:15:24;;;;;;;;;;;13.50;95.10;;;;;;4975536;28;19929;-80
2022/01/21 09:17:50;;;;;;;;;;;13.60;92.60;;;;;;4975310;28;19910;-79
2022/01/21 09:20:16;;;;;;;;;;;14.20;92.50;;;;;;4975276;28;20011;-80
2022/01/21 09:22:42;;;;;;;;;;;15.60;89.00;;;;;;4973810;28;19954;-80
2022/01/21 09:25:08;;;;;;;;;;;16.00;84.30;;;;;;4975039;28;19914;-80
2022/01/21 09:27:34;;;;;;;;;;;15.60;82.90;;;;;;4975262;28;19961;-80
2022/01/21 09:30:00;;;;;;;;;;;15.60;82.50;;;;;;4974996;28;20321;-79
2022/01/21 09:32:25;;;;;;;;;;;16.10;80.10;;;;;;4975068;28;20264;-79
2022/01/21 09:34:51;;;;;;;;;;;16.50;78.40;;;;;;4974858;28;19932;-79
2022/01/21 09:37:17;;;;;;;;;;;16.40;76.10;;;;;;4975496;28;19914;-80
2022/01/21 09:39:43;;;;;;;;;;;15.80;77.20;;;;;;4974888;28;20289;-79
2022/01/21 09:42:10;;;;;;;;;;;16.10;77.60;;;;;;4975437;28;20358;-80
2022/01/21 09:44:36;;;;;;;;;;;16.40;75.30;;;;;;4989715;28;20029;-79
2022/01/21 09:47:03;;;;;;;;;;;15.70;74.60;;;;;;4957361;28;20402;-79
2022/01/21 09:49:29;;;;;;;;;;;15.60;76.70;;;;;;4974979;28;19917;-79
2022/01/21 09:51:58;;;;;;;;;;;15.60;76.80;;;;;;4974903;28;19910;-79
2022/01/21 09:54:26;;;;;;;;;;;15.80;75.10;;;;;;4957216;28;20348;-79
2022/01/21 09:56:58;;;;;;;;;;;14.60;77.50;;;;;;4974744;28;19914;-79
2022/01/21 09:59:25;;;;;;;;;;;14.40;78.10;;;;;;4974718;28;19957;-79
2022/01/21 10:01:53;;;;;;;;;;;13.40;80.10;;;;;;4974719;28;19956;-78
2022/01/21 10:04:19;;;;;;;;;;;12.90;82.80;;;;;;4975351;28;19913;-78
2022/01/21 10:06:46;;;;;;;;;;;12.30;85.10;;;;;;4978562;28;19910;-79
2022/01/21 10:09:13;;;;;;;;;;;12.20;86.90;;;;;;4978504;28;19910;-78
2022/01/21 10:11:39;;;;;;;;;;;12.10;87.40;;;;;;4978478;28;19910;-78
2022/01/21 10:14:04;;;;;;;;;;;12.20;87.70;;;;;;4978445;28;19917;-78
2022/01/21 10:16:30;;;;;;;;;;;11.90;88.70;;;;;;4978470;28;19921;-79
2022/01/21 10:19:11;;;;;;;;;;;11.60;90.20;;;;;;4978335;28;19910;-78
2022/01/21 10:21:38;;;;;;;;;;;11.30;91.20;;;;;;4960710;28;20377;-79
2022/01/21 10:24:08;;;;;;;;;;;11.20;91.90;;;;;;4978067;28;19910;-79
2022/01/21 10:26:34;;;;;;;;;;;11.60;92.00;;;;;;4960914;28;19933;-78
2022/01/21 10:28:59;;;;;;;;;;;11.60;91.50;;;;;;4978156;28;20374;-78
2022/01/21 10:31:27;;;;;;;;;;;11.80;91.30;;;;;;4978117;28;19961;-78
2022/01/21 10:33:56;;;;;;;;;;;12.00;90.70;;;;;;4976840;28;19964;-78
2022/01/21 10:36:27;;;;;;;;;;;11.90;91.10;;;;;;4977931;28;19914;-78
2022/01/21 10:38:57;;;;;;;;;;;11.70;90.90;;;;;;4978190;28;20404;-78
2022/01/21 10:41:29;;;;;;;;;;;11.90;91.20;;;;;;4960494;28;19916;-79
2022/01/21 10:44:02;;;;;;;;;;;12.50;90.50;;;;;;4978409;28;19910;-78
2022/01/21 10:46:28;;;;;;;;;;;12.50;90.20;;;;;;4978035;28;20386;-79
2022/01/21 10:49:01;;;;;;;;;;;12.90;89.70;;;;;;4977877;28;19917;-78
2022/01/21 10:51:28;;;;;;;;;;;13.10;88.80;;;;;;4977794;28;19911;-78
2022/01/21 10:53:58;;;;;;;;;;;12.90;87.10;;;;;;4977696;28;20004;-78
2022/01/21 10:56:28;;;;;;;;;;;13.20;86.90;;;;;;4977852;28;20338;-78
2022/01/21 10:58:56;;;;;;;;;;;13.40;85.10;;;;;;4977650;28;19916;-78
2022/01/21 11:01:27;;;;;;;;;;;13.70;84.50;;;;;;4977535;28;19910;-78
2022/01/21 11:04:09;;;;;;;;;;;13.50;84.40;;;;;;4976850;28;20202;-78
2022/01/21 11:06:46;;;;;;;;;;;13.50;84.20;;;;;;4992674;28;19910;-78
2022/01/21 11:09:17;;;;;;;;;;;13.90;84.40;;;;;;4977572;28;19910;-79
2022/01/21 11:11:43;;;;;;;;;;;14.70;82.00;;;;;;4959973;28;19910;-79
2022/01/21 11:14:10;;;;;;;;;;;14.60;80.40;;;;;;4977452;28;19980;-78
2022/01/21 11:16:37;;;;;;;;;;;14.80;80.90;;;;;;4990822;28;20370;-79
2022/01/21 11:19:12;;;;;;;;;;;14.60;79.50;;;;;;4977380;28;19917;-78
2022/01/21 11:21:48;;;;;;;;;;;14.00;81.00;;;;;;4977470;28;20064;-79
2022/01/21 11:24:14;;;;;;;;;;;13.70;81.00;;;;;;4977357;28;20008;-78
2022/01/21 11:26:40;;;;;;;;;;;13.70;82.40;;;;;;4977350;28;19977;-78
2022/01/21 11:29:07;;;;;;;;;;;13.10;84.40;;;;;;4977036;28;19911;-79
2022/01/21 11:31:33;;;;;;;;;;;13.10;84.90;;;;;;4977006;28;20367;-78
2022/01/21 11:33:58;;;;;;;;;;;12.90;85.50;;;;;;4977142;28;19910;-79
2022/01/21 11:36:25;;;;;;;;;;;12.40;86.30;;;;;;4977004;28;20402;-78
2022/01/21 11:38:54;;;;;;;;;;;11.80;87.90;;;;;;4976996;28;19917;-78
2022/01/21 11:41:20;;;;;;;;;;;12.10;87.90;;;;;;4976679;28;20021;-79
2022/01/21 11:43:51;;;;;;;;;;;12.00;87.00;;;;;;4991677;28;19910;-78
2022/01/21 11:48:56;;;;;;;;;;;12.00;86.60;;;;;;4976824;28;19917;-79
2022/01/21 11:51:24;;;;;;;;;;;11.80;87.50;;;;;;4976640;28;19910;-79
2022/01/21 11:53:54;;;;;;;;;;;11.90;89.00;;;;;;4976543;28;20363;-79
2022/01/21 11:56:29;;;;;;;;;;;11.80;89.00;;;;;;4958563;28;20275;-79
2022/01/21 11:59:05;;;;;;;;;;;11.90;88.90;;;;;;4976028;28;19921;-78
2022/01/21 12:01:31;;;;;;;;;;;12.70;86.90;;;;;;4949995;28;19930;-79
2022/01/21 12:03:57;;;;;;;;;;;12.80;85.00;;;;;;4947480;29;20222;-80
2022/01/21 12:06:33;;;;;;;;;;;14.00;83.90;;;;;;4956519;29;19910;-79
2022/01/21 12:09:00;;;;;;;;;;;14.30;81.90;;;;;;4953765;29;20438;-79
2022/01/21 12:11:30;;;;;;;;;;;14.10;80.50;;;;;;4956409;29;19962;-79
2022/01/21 12:13:56;;;;;;;;;;;14.00;81.10;;;;;;4954958;29;20434;-79
2022/01/21 12:17:11;;;;;;;;;;;14.70;79.00;;;;;;4956101;29;19919;-79
2022/01/21 12:19:39;;;;;;;;;;;15.40;77.20;;;;;;4920044;29;19911;-80
2022/01/21 12:22:16;;;;;;;;;;;16.00;75.70;;;;;;4956113;29;19997;-79
2022/01/21 12:24:51;;;;;;;;;;;15.90;74.90;;;;;;4954099;29;19914;-79
2022/01/21 12:27:17;;;;;;;;;;;17.30;71.80;;;;;;4955599;28;20386;-79
2022/01/21 12:29:43;;;;;;;;;;;21.70;61.20;;;;;;4956217;28;19911;-79
2022/01/21 12:32:32;;;;;;;;;;;23.80;56.60;;;;;;4956931;28;19911;-80
2022/01/21 12:34:58;;;;;;;;;;;25.90;51.60;;;;;;4955277;29;20001;-80
2022/01/21 12:37:34;;;;;;;;;;;25.60;46.90;;;;;;4956832;28;19961;-80
2022/01/21 12:40:00;;;;;;;;;;;23.80;47.80;;;;;;4954948;29;20306;-79
2022/01/21 12:42:35;;;;;;;;;;;19.70;51.70;;;;;;4956401;28;19910;-79
2022/01/21 12:45:07;;;;;;;;;;;17.30;56.20;;;;;;4956503;29;19911;-79
2022/01/21 12:47:35;;;;;;;;;;;16.00;60.10;;;;;;4956554;29;19997;-79
2022/01/21 12:50:14;;;;;;;;;;;15.20;62.50;;;;;;4956261;28;19961;-79
2022/01/21 12:53:15;;;;;;;;;;;14.50;64.10;;;;;;4956765;28;19942;-78
2022/01/21 12:58:16;;;;;;;;;;;13.90;68.10;;;;;;4975350;28;19921;-78
2022/01/21 13:00:42;;;;;;;;;;;13.20;70.20;;;;;;4975506;28;19918;-79
2022/01/21 13:03:14;;;;;;;;;;;13.40;71.60;;;;;;4975383;28;19918;-78
2022/01/21 13:05:42;;;;;;;;;;;14.70;68.10;;;;;;4975649;28;20014;-79
2022/01/21 13:08:14;;;;;;;;;;;14.90;67.90;;;;;;4975434;28;19914;-78
2022/01/21 13:10:40;;;;;;;;;;;14.20;68.00;;;;;;4975399;28;19937;-78
2022/01/21 13:15:43;;;;;;;;;;;13.50;70.20;;;;;;4975116;28;20392;-79
2022/01/21 13:18:10;;;;;;;;;;;13.50;69.90;;;;;;4975203;28;19914;-78
2022/01/21 13:20:36;;;;;;;;;;;13.20;69.40;;;;;;4975134;28;19945;-78
2022/01/21 13:23:02;;;;;;;;;;;12.70;70.80;;;;;;4975039;28;19910;-78
2022/01/21 13:25:30;;;;;;;;;;;12.50;70.00;;;;;;4975031;28;20405;-79
2022/01/21 13:27:58;;;;;;;;;;;12.60;71.50;;;;;;4975089;28;19965;-78
2022/01/21 13:30:27;;;;;;;;;;;12.80;71.70;;;;;;4974943;28;19910;-78
2022/01/21 13:33:00;;;;;;;;;;;12.20;70.80;;;;;;4974932;28;19965;-79
2022/01/21 13:35:26;;;;;;;;;;;12.50;71.90;;;;;;4974847;28;19957;-78
2022/01/21 13:38:05;;;;;;;;;;;12.50;69.90;;;;;;4974883;28;19972;-78
2022/01/21 13:40:35;;;;;;;;;;;12.50;71.30;;;;;;4974233;28;19910;-78
2022/01/21 13:43:13;;;;;;;;;;;12.40;69.70;;;;;;4974857;28;19953;-78
2022/01/21 13:45:41;;;;;;;;;;;12.40;69.40;;;;;;4974918;28;19910;-79
2022/01/21 13:48:08;;;;;;;;;;;12.00;69.90;;;;;;4974865;28;19911;-78
2022/01/21 13:50:33;;;;;;;;;;;12.00;69.30;;;;;;4975308;28;20044;-78
2022/01/21 13:53:00;;;;;;;;;;;12.00;69.40;;;;;;4974886;28;19989;-78
2022/01/21 13:55:29;;;;;;;;;;;11.60;70.50;;;;;;4973166;28;19923;-78
2022/01/21 13:57:55;;;;;;;;;;;11.30;71.70;;;;;;4974677;28;20548;-78
2022/01/21 14:00:26;;;;;;;;;;;11.30;73.60;;;;;;4974667;28;19993;-78
2022/01/21 14:03:22;;;;;;;;;;;11.10;73.10;;;;;;4974883;28;19916;-78
2022/01/21 14:05:50;;;;;;;;;;;11.00;74.30;;;;;;4962573;28;19917;-79
2022/01/21 14:08:21;;;;;;;;;;;11.10;75.60;;;;;;4974662;28;19910;-78
2022/01/21 14:10:47;;;;;;;;;;;11.30;74.30;;;;;;4975148;28;19910;-78
2022/01/21 14:13:13;;;;;;;;;;;11.30;74.50;;;;;;4973373;28;19910;-78
2022/01/21 14:15:39;;;;;;;;;;;11.40;75.40;;;;;;4974477;28;19945;-78
2022/01/21 14:18:04;;;;;;;;;;;11.60;74.50;;;;;;4974596;28;19911;-78
2022/01/21 14:20:32;;;;;;;;;;;11.70;74.70;;;;;;4974456;28;20330;-78
2022/01/21 14:22:58;;;;;;;;;;;11.60;74.20;;;;;;4974478;28;19910;-78
2022/01/21 14:25:23;;;;;;;;;;;11.30;74.90;;;;;;4957036;28;19917;-79
2022/01/21 14:27:50;;;;;;;;;;;11.40;75.30;;;;;;4974433;28;19946;-78
2022/01/21 14:30:17;;;;;;;;;;;13.20;74.20;;;;;;4974437;28;19910;-78
2022/01/21 14:32:49;;;;;;;;;;;16.90;67.60;;;;;;4974416;28;19910;-78
2022/01/21 14:35:18;;;;;;;;;;;19.30;62.10;;;;;;4972866;28;20323;-79
2022/01/21 14:37:44;;;;;;;;;;;18.70;58.70;;;;;;4974656;28;19917;-79
2022/01/21 14:40:11;;;;;;;;;;;18.10;57.40;;;;;;4974364;28;19910;-79
2022/01/21 14:42:36;;;;;;;;;;;16.40;60.80;;;;;;4974307;28;19910;-79
2022/01/21 14:45:19;;;;;;;;;;;16.30;62.10;;;;;;4974840;28;20278;-80
2022/01/21 14:47:46;;;;;;;;;;;17.80;58.30;;;;;;4974272;28;19917;-79
2022/01/21 14:50:20;;;;;;;;;;;16.80;60.10;;;;;;4974499;28;19910;-79
2022/01/21 14:52:49;;;;;;;;;;;15.00;60.40;;;;;;4977842;28;19953;-79
2022/01/21 14:55:23;;;;;;;;;;;13.60;64.90;;;;;;4977463;28;20374;-78
2022/01/21 14:57:49;;;;;;;;;;;12.90;66.20;;;;;;4960239;28;19923;-78
2022/01/21 15:00:21;;;;;;;;;;;12.50;66.30;;;;;;4977611;28;20280;-78
2022/01/21 15:02:47;;;;;;;;;;;12.10;67.70;;;;;;4977791;28;20386;-78
2022/01/21 15:05:14;;;;;;;;;;;12.00;69.50;;;;;;4977596;28;19910;-78
2022/01/21 15:07:41;;;;;;;;;;;11.70;70.90;;;;;;4977570;28;20330;-78
2022/01/21 15:10:29;;;;;;;;;;;11.50;70.40;;;;;;4977734;28;19964;-79
2022/01/21 15:15:47;;;;;;;;;;;11.60;70.20;;;;;;4977261;28;19948;-79
2022/01/21 15:18:16;;;;;;;;;;;11.70;70.80;;;;;;4977615;28;19917;-78
2022/01/21 15:20:44;;;;;;;;;;;12.00;70.40;;;;;;4975887;28;19911;-78
2022/01/21 15:23:10;;;;;;;;;;;11.90;70.40;;;;;;4975848;28;19910;-79
2022/01/21 15:25:36;;;;;;;;;;;11.50;71.00;;;;;;4977182;28;19910;-78
2022/01/21 15:28:02;;;;;;;;;;;11.30;71.30;;;;;;4977088;28;20285;-79
2022/01/21 15:30:28;;;;;;;;;;;11.30;72.10;;;;;;4977020;28;19997;-78